Time;durP1;ratioP1;P1;durP2;ratioP2;P2;SDS_P1;SDS_P2;PMS_P1;PMS_P2;Temp;Humidity;BMP_temperature;BMP_pressure;BME280_temperature;BME280_humidity;BME280_pressure;Samples;Min_cycle;Max_cycle;Signal;HPM_P1;HPM_P2
2022/09/15 00:01:20;;;;;;;0.80;0.73;;;23.00;94.20;;;;;;5065109;28;45388;-74
2022/09/15 00:03:47;;;;;;;0.80;0.70;;;23.10;94.10;;;;;;5065444;28;45330;-75
2022/09/15 00:06:15;;;;;;;0.93;0.75;;;23.00;94.00;;;;;;5065560;28;45178;-74
2022/09/15 00:08:45;;;;;;;1.30;0.90;;;23.10;94.10;;;;;;5065352;28;47444;-74
2022/09/15 00:11:16;;;;;;;0.82;0.80;;;23.00;94.00;;;;;;5065375;28;45366;-74
2022/09/15 00:13:43;;;;;;;1.92;1.00;;;23.00;94.00;;;;;;5065507;28;45367;-74
2022/09/15 00:16:12;;;;;;;1.17;0.80;;;23.10;94.00;;;;;;5064708;28;45609;-74
2022/09/15 00:18:40;;;;;;;1.20;0.93;;;23.10;94.00;;;;;;5064931;28;48200;-74
2022/09/15 00:21:08;;;;;;;1.52;0.70;;;23.00;94.00;;;;;;5064770;28;45161;-74
2022/09/15 00:23:35;;;;;;;1.35;0.90;;;23.00;94.00;;;;;;5069334;28;45273;-74
2022/09/15 00:26:02;;;;;;;0.85;0.70;;;23.10;94.10;;;;;;5065335;28;45304;-74
2022/09/15 00:28:29;;;;;;;0.90;0.60;;;23.10;94.00;;;;;;5064628;28;47496;-74
2022/09/15 00:30:56;;;;;;;1.23;0.70;;;23.00;94.00;;;;;;5064859;28;45377;-74
2022/09/15 00:33:24;;;;;;;1.08;0.77;;;23.00;94.00;;;;;;5067726;28;45239;-74
2022/09/15 00:35:53;;;;;;;0.63;0.60;;;23.10;94.00;;;;;;5068755;28;45594;-74
2022/09/15 00:38:20;;;;;;;0.88;0.70;;;23.10;94.00;;;;;;5068096;28;48232;-74
2022/09/15 00:40:55;;;;;;;0.93;0.77;;;23.10;94.00;;;;;;5068563;28;45245;-74
2022/09/15 00:43:43;;;;;;;0.50;0.50;;;23.10;94.00;;;;;;5068869;28;45292;-74
2022/09/15 00:46:10;;;;;;;0.82;0.80;;;23.10;93.90;;;;;;5065323;28;45244;-74
2022/09/15 00:48:43;;;;;;;1.10;0.85;;;23.10;93.90;;;;;;5076615;28;45477;-74
2022/09/15 00:51:12;;;;;;;0.70;0.70;;;23.10;93.80;;;;;;5088331;28;45325;-74
2022/09/15 00:53:40;;;;;;;0.68;0.68;;;23.00;93.90;;;;;;5088125;28;45340;-74
2022/09/15 00:56:10;;;;;;;0.75;0.63;;;23.00;93.80;;;;;;5072706;28;45457;-74
2022/09/15 00:58:43;;;;;;;0.68;0.63;;;23.00;93.90;;;;;;5067364;28;48515;-74
2022/09/15 01:01:10;;;;;;;1.92;0.60;;;23.00;93.90;;;;;;5068029;28;45197;-74
2022/09/15 01:03:38;;;;;;;0.77;0.60;;;23.00;94.10;;;;;;5068030;28;45371;-74
2022/09/15 01:06:10;;;;;;;0.65;0.65;;;23.00;94.20;;;;;;5067924;28;45518;-74
2022/09/15 01:08:41;;;;;;;1.35;0.70;;;23.00;94.40;;;;;;5067940;28;45645;-74
2022/09/15 01:11:08;;;;;;;0.50;0.50;;;23.00;94.20;;;;;;5068088;28;45373;-74
2022/09/15 01:13:35;;;;;;;1.75;0.40;;;23.00;94.40;;;;;;5068054;28;45315;-74
2022/09/15 01:16:09;;;;;;;0.55;0.55;;;23.00;94.40;;;;;;5067443;28;45413;-74
2022/09/15 01:18:46;;;;;;;0.85;0.47;;;23.00;94.40;;;;;;5067913;28;47069;-74
2022/09/15 01:21:24;;;;;;;0.57;0.50;;;23.00;94.50;;;;;;5064844;28;45255;-74
2022/09/15 01:24:33;;;;;;;0.70;0.70;;;23.00;94.50;;;;;;5067931;28;45330;-74
2022/09/15 01:27:16;;;;;;;0.60;0.60;;;23.00;94.20;;;;;;5067723;28;45440;-74
2022/09/15 01:30:03;;;;;;;0.82;0.60;;;23.00;93.80;;;;;;5067223;28;47996;-74
2022/09/15 01:33:04;;;;;;;0.40;0.40;;;23.00;93.80;;;;;;5066816;28;45272;-74
2022/09/15 01:35:44;;;;;;;0.73;0.60;;;23.10;93.80;;;;;;5058565;28;45303;-74
2022/09/15 01:38:18;;;;;;;0.82;0.75;;;23.10;93.70;;;;;;5072799;28;45194;-74
2022/09/15 01:40:50;;;;;;;0.70;0.60;;;23.00;93.70;;;;;;5067605;28;45510;-75
2022/09/15 01:43:19;;;;;;;0.50;0.50;;;23.10;94.10;;;;;;5049442;28;45418;-74
2022/09/15 01:45:49;;;;;;;0.90;0.65;;;23.10;93.70;;;;;;5067277;28;45388;-74
2022/09/15 01:48:17;;;;;;;0.52;0.50;;;23.10;93.60;;;;;;5075807;28;45241;-74
2022/09/15 01:50:50;;;;;;;0.82;0.60;;;23.10;93.60;;;;;;5066964;28;46298;-74
2022/09/15 01:53:20;;;;;;;0.60;0.60;;;23.10;93.60;;;;;;5067326;28;45270;-74
2022/09/15 01:55:52;;;;;;;1.00;0.55;;;23.10;93.60;;;;;;5067336;28;45375;-74
2022/09/15 01:58:20;;;;;;;1.00;0.70;;;23.10;93.50;;;;;;5067652;28;45200;-74
2022/09/15 02:00:53;;;;;;;1.13;0.60;;;23.10;93.50;;;;;;5064204;28;46467;-74
2022/09/15 02:03:25;;;;;;;0.60;0.60;;;23.10;93.50;;;;;;5067569;28;45222;-74
2022/09/15 02:06:01;;;;;;;0.75;0.70;;;23.10;93.50;;;;;;5066758;28;45470;-74
2022/09/15 02:08:36;;;;;;;0.60;0.57;;;23.10;93.40;;;;;;5046973;28;45134;-74
2022/09/15 02:11:15;;;;;;;1.42;0.60;;;23.10;93.40;;;;;;5046743;28;47277;-74
2022/09/15 02:13:48;;;;;;;0.55;0.55;;;23.10;93.40;;;;;;5046716;28;45415;-74
2022/09/15 02:16:19;;;;;;;1.23;0.82;;;23.10;93.30;;;;;;5046258;28;45324;-74
2022/09/15 02:19:09;;;;;;;1.42;0.68;;;23.10;93.10;;;;;;5063431;28;45521;-74
2022/09/15 02:21:44;;;;;;;0.93;0.75;;;23.10;93.20;;;;;;5086463;28;48187;-74
2022/09/15 02:24:17;;;;;;;0.90;0.70;;;23.10;92.90;;;;;;5085906;28;45290;-74
2022/09/15 02:26:46;;;;;;;1.23;0.70;;;23.10;92.70;;;;;;5067159;28;45316;-74
2022/09/15 02:29:18;;;;;;;1.00;0.85;;;23.10;92.70;;;;;;5066850;28;45324;-74
2022/09/15 02:31:48;;;;;;;0.82;0.70;;;23.00;92.60;;;;;;5067024;28;45391;-74
2022/09/15 02:34:19;;;;;;;0.90;0.70;;;23.00;92.60;;;;;;5066334;28;45407;-74
2022/09/15 02:36:46;;;;;;;2.35;1.00;;;23.00;92.40;;;;;;5067421;28;45231;-74
2022/09/15 02:39:18;;;;;;;0.95;0.80;;;23.00;92.40;;;;;;5066743;28;45631;-74
2022/09/15 02:41:46;;;;;;;0.90;0.80;;;23.00;92.30;;;;;;5066614;28;48519;-74
2022/09/15 02:44:13;;;;;;;0.85;0.70;;;23.00;92.40;;;;;;5066688;28;45259;-75
2022/09/15 02:46:41;;;;;;;1.20;0.70;;;23.00;92.30;;;;;;5066762;28;45376;-75
2022/09/15 02:49:24;;;;;;;1.00;0.82;;;23.00;92.40;;;;;;5066978;28;45531;-75
2022/09/15 02:51:51;;;;;;;0.80;0.80;;;23.00;92.30;;;;;;5066171;28;45451;-74
2022/09/15 02:54:18;;;;;;;0.82;0.80;;;23.00;92.30;;;;;;5065736;28;45234;-74
2022/09/15 02:56:45;;;;;;;1.00;0.90;;;23.00;92.30;;;;;;5066366;28;45312;-74
2022/09/15 02:59:12;;;;;;;1.00;0.80;;;23.00;92.00;;;;;;5050895;28;45531;-74
2022/09/15 03:01:39;;;;;;;0.70;0.70;;;23.00;92.00;;;;;;5077860;28;47461;-74
2022/09/15 03:04:06;;;;;;;0.80;0.80;;;23.00;91.90;;;;;;5086752;28;45214;-74
2022/09/15 03:06:34;;;;;;;1.17;0.90;;;23.00;91.90;;;;;;5086731;28;45364;-74
2022/09/15 03:09:04;;;;;;;0.80;0.80;;;23.00;91.80;;;;;;5071264;28;45522;-74
2022/09/15 03:11:32;;;;;;;0.75;0.75;;;23.00;91.70;;;;;;5066028;28;46846;-74
2022/09/15 03:14:00;;;;;;;0.63;0.63;;;23.00;91.70;;;;;;5065701;28;45869;-74
2022/09/15 03:16:28;;;;;;;1.42;0.93;;;23.00;91.70;;;;;;5045577;28;45288;-74
2022/09/15 03:18:57;;;;;;;0.60;0.60;;;23.00;91.70;;;;;;5045969;28;45294;-74
2022/09/15 03:21:24;;;;;;;0.80;0.80;;;23.00;91.70;;;;;;5051100;28;46967;-74
2022/09/15 03:23:52;;;;;;;0.80;0.80;;;23.00;91.70;;;;;;5065788;28;45352;-74
2022/09/15 03:26:19;;;;;;;0.80;0.75;;;23.00;91.70;;;;;;5065778;28;45255;-74
2022/09/15 03:28:45;;;;;;;1.10;1.00;;;23.00;91.60;;;;;;5065505;28;45255;-74
2022/09/15 03:31:13;;;;;;;1.10;0.82;;;23.00;91.40;;;;;;5065246;28;46445;-74
2022/09/15 03:33:40;;;;;;;1.38;0.88;;;23.00;91.30;;;;;;5076734;28;45233;-74
2022/09/15 03:36:07;;;;;;;1.10;1.00;;;23.00;91.40;;;;;;5085836;28;45408;-74
2022/09/15 03:38:34;;;;;;;1.38;1.00;;;23.00;91.40;;;;;;5086356;28;45282;-74
2022/09/15 03:41:06;;;;;;;1.42;1.20;;;23.00;91.40;;;;;;5086129;28;46374;-74
2022/09/15 03:43:34;;;;;;;1.20;1.10;;;23.00;91.00;;;;;;5068507;28;45393;-74
2022/09/15 03:46:01;;;;;;;1.40;1.23;;;23.00;90.50;;;;;;5065665;28;45241;-74
2022/09/15 03:48:30;;;;;;;1.40;0.93;;;23.00;89.60;;;;;;5065722;28;45339;-74
2022/09/15 03:54:19;;;;;;;1.30;1.20;;;23.00;90.10;;;;;;5063955;28;45186;-75
2022/09/15 03:56:47;;;;;;;1.70;1.30;;;23.00;89.00;;;;;;5066216;28;45143;-75
2022/09/15 03:59:17;;;;;;;1.40;1.20;;;23.00;87.70;;;;;;5066112;28;45375;-75
2022/09/15 04:01:44;;;;;;;1.40;1.30;;;23.00;87.70;;;;;;5065700;28;47293;-74
2022/09/15 04:04:11;;;;;;;1.48;1.27;;;23.00;88.60;;;;;;5065225;28;45171;-74
2022/09/15 04:06:50;;;;;;;1.38;1.20;;;23.00;89.60;;;;;;5064305;28;45436;-74
2022/09/15 04:09:17;;;;;;;1.15;1.00;;;23.00;90.10;;;;;;5065227;28;45675;-74
2022/09/15 04:11:44;;;;;;;1.42;1.23;;;23.00;90.20;;;;;;5058417;28;47930;-74
2022/09/15 04:14:12;;;;;;;1.45;1.17;;;23.00;90.30;;;;;;5055431;28;45237;-74
2022/09/15 04:16:39;;;;;;;0.82;0.82;;;23.00;90.50;;;;;;5065380;28;45223;-74
2022/09/15 04:19:06;;;;;;;2.88;1.08;;;23.00;90.60;;;;;;5065497;28;45288;-74
2022/09/15 04:21:33;;;;;;;1.38;1.00;;;23.00;90.60;;;;;;5065625;28;47441;-74
2022/09/15 04:23:59;;;;;;;2.88;1.00;;;23.00;90.80;;;;;;5065364;28;45210;-74
2022/09/15 04:26:30;;;;;;;1.27;0.98;;;23.00;90.80;;;;;;5065370;28;45184;-74
2022/09/15 04:28:57;;;;;;;0.90;0.73;;;23.00;90.70;;;;;;5065652;28;45463;-74
2022/09/15 04:31:25;;;;;;;1.50;1.00;;;23.00;90.80;;;;;;5064994;28;46177;-74
2022/09/15 04:33:53;;;;;;;0.77;0.70;;;23.00;90.90;;;;;;5065193;28;45289;-74
2022/09/15 04:36:22;;;;;;;1.27;0.80;;;23.00;90.80;;;;;;5064460;28;45272;-74
2022/09/15 04:38:50;;;;;;;1.13;0.90;;;23.00;90.90;;;;;;5064855;28;45356;-73
2022/09/15 04:41:18;;;;;;;1.35;0.85;;;23.00;90.90;;;;;;5064315;28;46529;-74
2022/09/15 04:43:45;;;;;;;1.45;1.00;;;23.00;90.90;;;;;;5064398;28;45205;-74
2022/09/15 04:46:13;;;;;;;0.93;0.90;;;23.00;90.90;;;;;;5064895;28;45157;-74
2022/09/15 04:48:42;;;;;;;1.20;1.00;;;23.00;90.90;;;;;;5064729;28;45443;-73
2022/09/15 04:51:14;;;;;;;1.33;0.82;;;23.10;90.90;;;;;;5064631;28;46806;-73
2022/09/15 04:53:42;;;;;;;1.05;0.70;;;23.10;90.90;;;;;;5064443;28;45498;-74
2022/09/15 04:56:10;;;;;;;1.05;0.80;;;23.10;91.00;;;;;;5073960;28;45316;-74
2022/09/15 04:58:38;;;;;;;1.55;0.90;;;23.00;91.00;;;;;;5064713;28;45389;-74
2022/09/15 05:01:10;;;;;;;0.82;0.70;;;23.00;90.90;;;;;;5064108;28;46477;-74
2022/09/15 05:03:37;;;;;;;1.00;0.80;;;23.00;90.90;;;;;;5064210;28;45229;-74
2022/09/15 05:06:08;;;;;;;1.20;0.90;;;23.10;91.00;;;;;;5064074;28;45354;-74
2022/09/15 05:08:35;;;;;;;0.88;0.80;;;23.10;91.00;;;;;;5064584;28;45436;-74
2022/09/15 05:11:03;;;;;;;0.63;0.63;;;23.00;91.10;;;;;;5064570;28;45398;-74
2022/09/15 05:13:29;;;;;;;1.95;0.90;;;23.00;91.10;;;;;;5064535;28;45216;-74
2022/09/15 05:15:56;;;;;;;2.10;0.80;;;23.00;91.10;;;;;;5064041;28;45418;-74
2022/09/15 05:18:23;;;;;;;1.13;0.90;;;23.00;91.10;;;;;;5065817;28;45296;-74
2022/09/15 05:20:50;;;;;;;1.77;0.90;;;23.00;91.00;;;;;;5067736;28;46698;-74
2022/09/15 05:23:25;;;;;;;0.80;0.80;;;23.00;91.00;;;;;;5067827;28;45271;-74
2022/09/15 05:25:56;;;;;;;0.80;0.80;;;23.00;91.20;;;;;;5068435;28;45438;-74
2022/09/15 05:28:23;;;;;;;0.82;0.70;;;23.00;91.10;;;;;;5068100;28;45456;-74
2022/09/15 05:30:51;;;;;;;0.82;0.80;;;23.00;91.00;;;;;;5067719;28;46478;-74
2022/09/15 05:33:18;;;;;;;0.70;0.70;;;23.00;91.00;;;;;;5067849;28;45217;-74
2022/09/15 05:35:52;;;;;;;1.00;0.80;;;23.00;90.90;;;;;;5067912;28;45241;-73
2022/09/15 05:38:19;;;;;;;1.00;0.68;;;23.00;90.90;;;;;;5067895;28;45481;-74
2022/09/15 05:40:47;;;;;;;1.10;0.80;;;23.00;90.90;;;;;;5067605;28;46507;-73
2022/09/15 05:43:14;;;;;;;1.23;0.70;;;23.00;90.90;;;;;;5067478;28;45323;-74
2022/09/15 05:45:42;;;;;;;0.88;0.80;;;23.00;90.90;;;;;;5067742;28;45299;-74
2022/09/15 05:48:09;;;;;;;2.80;0.70;;;23.00;91.00;;;;;;5067776;28;45207;-74
2022/09/15 05:50:36;;;;;;;0.65;0.60;;;23.00;91.10;;;;;;5066777;28;46856;-73
2022/09/15 05:53:03;;;;;;;0.60;0.60;;;23.00;91.10;;;;;;5067244;28;45288;-73
2022/09/15 05:55:30;;;;;;;0.93;0.63;;;23.00;91.10;;;;;;5066668;28;45328;-73
2022/09/15 05:57:58;;;;;;;0.88;0.80;;;23.00;91.10;;;;;;5066550;28;45460;-74
2022/09/15 06:00:25;;;;;;;1.10;0.55;;;23.00;91.20;;;;;;5067020;28;47074;-74
2022/09/15 06:02:51;;;;;;;0.60;0.60;;;23.00;91.30;;;;;;5066967;28;45585;-74
2022/09/15 06:05:18;;;;;;;0.98;0.60;;;23.00;91.20;;;;;;5067063;28;45221;-74
2022/09/15 06:07:45;;;;;;;0.90;0.68;;;23.00;91.40;;;;;;5066934;28;45432;-74
2022/09/15 06:10:12;;;;;;;0.65;0.65;;;23.00;91.20;;;;;;5066923;28;47485;-74
2022/09/15 06:12:38;;;;;;;0.77;0.50;;;23.00;91.30;;;;;;5067244;28;45183;-74
2022/09/15 06:15:07;;;;;;;1.33;0.70;;;23.00;91.40;;;;;;5066643;28;45223;-74
2022/09/15 06:17:34;;;;;;;0.90;0.63;;;23.00;91.50;;;;;;5067515;28;45728;-74
2022/09/15 06:20:04;;;;;;;0.70;0.60;;;23.00;91.40;;;;;;5066542;28;46306;-74
2022/09/15 06:22:31;;;;;;;0.70;0.70;;;23.00;91.50;;;;;;5066838;28;45281;-73
2022/09/15 06:24:58;;;;;;;0.50;0.50;;;23.00;91.50;;;;;;5066241;28;45388;-74
2022/09/15 06:27:25;;;;;;;0.65;0.52;;;23.00;91.60;;;;;;5066695;28;45586;-73
2022/09/15 06:29:52;;;;;;;0.77;0.55;;;23.00;91.80;;;;;;5065080;28;46443;-73
2022/09/15 06:32:20;;;;;;;0.70;0.60;;;23.00;91.70;;;;;;5066470;28;45327;-73
2022/09/15 06:34:47;;;;;;;0.85;0.55;;;23.00;91.60;;;;;;5066134;28;45281;-74
2022/09/15 06:37:14;;;;;;;0.60;0.60;;;23.00;91.50;;;;;;5066445;28;45432;-74
2022/09/15 06:39:42;;;;;;;1.08;0.90;;;23.00;91.60;;;;;;5066399;28;45528;-74
2022/09/15 06:42:09;;;;;;;0.80;0.60;;;23.00;91.50;;;;;;5066719;28;45278;-74
2022/09/15 06:44:36;;;;;;;0.65;0.63;;;23.00;91.60;;;;;;5066791;28;45207;-74
2022/09/15 06:47:04;;;;;;;0.82;0.52;;;23.00;91.50;;;;;;5066683;28;45684;-74
2022/09/15 06:49:32;;;;;;;0.52;0.52;;;23.00;91.50;;;;;;5066411;28;46362;-74
2022/09/15 06:52:00;;;;;;;0.70;0.60;;;23.00;91.50;;;;;;5066620;28;45200;-74
2022/09/15 06:54:27;;;;;;;0.82;0.73;;;23.00;91.50;;;;;;5066500;28;45463;-74
2022/09/15 06:56:54;;;;;;;0.63;0.60;;;23.00;92.00;;;;;;5066511;28;45475;-74
2022/09/15 06:59:22;;;;;;;0.70;0.60;;;23.00;91.60;;;;;;5066032;28;46612;-74
2022/09/15 07:01:52;;;;;;;0.60;0.60;;;23.00;91.60;;;;;;5066425;28;45384;-74
2022/09/15 07:04:20;;;;;;;1.05;0.70;;;23.00;91.70;;;;;;5066271;28;45321;-73
2022/09/15 07:06:49;;;;;;;1.52;0.63;;;23.00;91.70;;;;;;5065972;28;45214;-74
2022/09/15 07:09:16;;;;;;;0.70;0.70;;;23.00;91.70;;;;;;5066002;28;46842;-74
2022/09/15 07:11:43;;;;;;;1.42;0.60;;;23.00;91.80;;;;;;5066192;28;45346;-74
2022/09/15 07:14:11;;;;;;;0.70;0.70;;;23.00;91.80;;;;;;5065883;28;45276;-74
2022/09/15 07:16:37;;;;;;;0.63;0.50;;;23.00;91.80;;;;;;5065050;28;45371;-73
2022/09/15 07:19:05;;;;;;;0.60;0.60;;;23.00;91.90;;;;;;5065453;28;46881;-73
2022/09/15 07:21:32;;;;;;;0.60;0.60;;;22.90;91.80;;;;;;5065568;28;45381;-74
2022/09/15 07:24:00;;;;;;;1.35;0.60;;;22.90;91.80;;;;;;5065580;28;45348;-73
2022/09/15 07:26:28;;;;;;;1.08;0.57;;;23.00;91.80;;;;;;5056828;28;45283;-74
2022/09/15 07:28:56;;;;;;;0.40;0.40;;;23.00;91.80;;;;;;5065257;28;46542;-74
2022/09/15 07:31:25;;;;;;;0.85;0.50;;;23.00;91.90;;;;;;5065413;28;45297;-73
2022/09/15 07:33:52;;;;;;;0.60;0.60;;;22.90;91.90;;;;;;5065086;28;45408;-74
2022/09/15 07:36:20;;;;;;;0.85;0.57;;;22.90;91.80;;;;;;5065238;28;45266;-73
2022/09/15 07:38:48;;;;;;;0.50;0.50;;;23.00;91.80;;;;;;5064680;28;46734;-74
2022/09/15 07:41:18;;;;;;;1.33;0.75;;;22.90;91.80;;;;;;5064633;28;45277;-74
2022/09/15 07:43:46;;;;;;;0.63;0.63;;;22.90;91.70;;;;;;5065260;28;45311;-74
2022/09/15 07:46:13;;;;;;;1.35;0.77;;;23.00;91.90;;;;;;5064863;28;45463;-74
2022/09/15 07:48:40;;;;;;;1.40;0.68;;;23.00;91.80;;;;;;5069520;28;46290;-73
2022/09/15 07:51:06;;;;;;;1.77;0.85;;;23.00;91.80;;;;;;5080335;28;45415;-73
2022/09/15 07:53:33;;;;;;;0.70;0.70;;;22.90;91.80;;;;;;5064851;28;45411;-73
2022/09/15 07:56:00;;;;;;;0.68;0.52;;;22.90;91.80;;;;;;5064657;28;45373;-74
2022/09/15 07:58:28;;;;;;;0.98;0.50;;;23.00;91.70;;;;;;5064570;28;46387;-73
2022/09/15 08:01:00;;;;;;;0.82;0.70;;;23.00;91.70;;;;;;5064578;28;45335;-74
2022/09/15 08:03:27;;;;;;;0.40;0.40;;;22.90;91.70;;;;;;5065419;28;45296;-73
2022/09/15 08:05:57;;;;;;;2.05;0.77;;;23.00;91.80;;;;;;5064806;28;45358;-73
2022/09/15 08:08:24;;;;;;;1.65;0.85;;;23.00;91.80;;;;;;5064631;28;49005;-73
2022/09/15 08:10:51;;;;;;;0.60;0.60;;;23.00;91.80;;;;;;5064523;28;45234;-74
2022/09/15 08:13:17;;;;;;;0.55;0.55;;;23.00;91.80;;;;;;5064676;28;45195;-74
2022/09/15 08:15:46;;;;;;;1.77;0.90;;;23.00;91.90;;;;;;5064213;28;45233;-73
2022/09/15 08:18:12;;;;;;;1.60;0.80;;;22.90;91.90;;;;;;5064655;28;46344;-74
2022/09/15 08:20:40;;;;;;;0.95;0.55;;;22.90;91.80;;;;;;5064449;28;45211;-73
2022/09/15 08:23:08;;;;;;;1.00;0.70;;;22.90;91.90;;;;;;5064785;28;45241;-73
2022/09/15 08:25:35;;;;;;;0.77;0.70;;;22.90;91.80;;;;;;5064442;28;45436;-73
2022/09/15 08:28:02;;;;;;;1.08;0.60;;;22.90;91.80;;;;;;5064148;28;46302;-73
2022/09/15 08:30:29;;;;;;;0.50;0.50;;;22.90;91.80;;;;;;5064385;28;45358;-73
2022/09/15 08:32:57;;;;;;;0.60;0.60;;;22.90;91.90;;;;;;5058050;28;45379;-74
2022/09/15 08:35:24;;;;;;;1.00;0.70;;;22.90;91.90;;;;;;5055190;28;45278;-73
2022/09/15 08:37:53;;;;;;;0.85;0.70;;;22.90;91.80;;;;;;5069290;28;47406;-73
2022/09/15 08:40:23;;;;;;;0.63;0.63;;;22.90;91.80;;;;;;5064815;28;45150;-74
2022/09/15 08:42:54;;;;;;;1.33;0.77;;;22.90;91.70;;;;;;5064307;28;45254;-73
2022/09/15 08:45:24;;;;;;;0.93;0.60;;;22.90;91.80;;;;;;5064429;28;45187;-74
2022/09/15 08:47:57;;;;;;;0.57;0.50;;;23.00;91.80;;;;;;5061179;28;46330;-73
2022/09/15 08:50:29;;;;;;;0.93;0.55;;;22.90;91.80;;;;;;5074185;28;45546;-73
2022/09/15 08:53:05;;;;;;;0.60;0.60;;;23.00;91.70;;;;;;5071422;28;45374;-74
2022/09/15 08:55:37;;;;;;;0.70;0.60;;;22.90;91.70;;;;;;5067933;28;45280;-73
2022/09/15 08:58:04;;;;;;;0.45;0.45;;;23.00;91.70;;;;;;5067814;28;47015;-73
2022/09/15 09:00:33;;;;;;;0.60;0.40;;;22.90;91.80;;;;;;5067783;28;45240;-73
2022/09/15 09:03:28;;;;;;;0.60;0.60;;;22.90;91.70;;;;;;5067821;28;45280;-73
2022/09/15 09:06:01;;;;;;;1.63;0.60;;;23.00;91.70;;;;;;5067921;28;45537;-73
2022/09/15 09:09:04;;;;;;;0.98;0.43;;;23.00;91.80;;;;;;5067825;28;48112;-74
2022/09/15 09:11:42;;;;;;;0.70;0.60;;;22.90;91.70;;;;;;5075659;28;45453;-73
2022/09/15 09:14:19;;;;;;;0.43;0.43;;;23.00;91.70;;;;;;5067607;28;45234;-73
2022/09/15 09:16:59;;;;;;;0.65;0.55;;;23.00;91.80;;;;;;5066784;28;45390;-74
2022/09/15 09:19:43;;;;;;;0.50;0.50;;;22.90;91.80;;;;;;5047212;28;48164;-74
2022/09/15 09:22:15;;;;;;;0.82;0.50;;;22.90;91.70;;;;;;5048839;28;45373;-73
2022/09/15 09:24:45;;;;;;;0.52;0.52;;;23.00;91.80;;;;;;5067343;28;45314;-74
2022/09/15 09:27:14;;;;;;;2.05;0.40;;;23.00;91.80;;;;;;5067804;28;45411;-73
2022/09/15 09:29:48;;;;;;;0.30;0.30;;;22.90;91.60;;;;;;5078228;28;46327;-73
2022/09/15 09:32:18;;;;;;;1.40;0.50;;;22.90;91.60;;;;;;5085623;28;45411;-73
2022/09/15 09:34:53;;;;;;;0.52;0.40;;;22.90;91.70;;;;;;5066915;28;45355;-74
2022/09/15 09:37:22;;;;;;;0.43;0.40;;;22.90;91.60;;;;;;5066799;28;45434;-73
2022/09/15 09:39:49;;;;;;;0.40;0.40;;;22.90;91.70;;;;;;5066800;28;47745;-73
2022/09/15 09:42:18;;;;;;;0.85;0.40;;;23.00;91.60;;;;;;5066515;28;45375;-74
2022/09/15 09:44:45;;;;;;;0.82;0.30;;;23.00;91.60;;;;;;5068746;28;45476;-74
2022/09/15 09:47:13;;;;;;;0.45;0.30;;;23.00;91.60;;;;;;5071211;28;45346;-73
2022/09/15 09:49:44;;;;;;;0.52;0.30;;;23.00;91.60;;;;;;5066540;28;46577;-73
2022/09/15 09:52:11;;;;;;;0.38;0.38;;;22.90;91.50;;;;;;5066561;28;45210;-73
2022/09/15 09:54:40;;;;;;;1.23;0.50;;;23.00;91.50;;;;;;5066635;28;45377;-74
2022/09/15 09:57:28;;;;;;;0.57;0.40;;;23.00;91.50;;;;;;5066798;28;45534;-74
2022/09/15 09:59:55;;;;;;;0.20;0.20;;;23.00;91.50;;;;;;5066355;28;45445;-74
2022/09/15 10:02:24;;;;;;;0.95;0.50;;;23.00;91.40;;;;;;5066230;28;45302;-74
2022/09/15 10:04:53;;;;;;;0.55;0.40;;;22.90;91.30;;;;;;5066252;28;45324;-74
2022/09/15 10:07:22;;;;;;;0.90;0.57;;;23.00;91.80;;;;;;5066315;28;45449;-73
2022/09/15 10:09:54;;;;;;;0.32;0.30;;;23.00;91.30;;;;;;5066411;28;47493;-73
2022/09/15 10:12:24;;;;;;;0.30;0.30;;;23.00;91.30;;;;;;5066004;28;45299;-74
2022/09/15 10:14:54;;;;;;;0.45;0.32;;;23.00;91.40;;;;;;5063650;28;45367;-74
2022/09/15 10:17:23;;;;;;;0.43;0.32;;;22.90;91.30;;;;;;5066350;28;45234;-73
2022/09/15 10:19:53;;;;;;;0.63;0.40;;;23.00;91.40;;;;;;5065974;28;46286;-74
2022/09/15 10:22:26;;;;;;;0.90;0.40;;;22.90;91.40;;;;;;5066009;28;45269;-73
2022/09/15 10:24:54;;;;;;;0.52;0.40;;;23.00;91.30;;;;;;5064740;28;45266;-74
2022/09/15 10:27:29;;;;;;;0.40;0.40;;;22.90;91.40;;;;;;5057119;28;45493;-73
2022/09/15 10:30:18;;;;;;;0.30;0.30;;;22.90;91.80;;;;;;5076609;28;47988;-74
2022/09/15 10:32:45;;;;;;;0.40;0.40;;;23.00;91.40;;;;;;5065827;28;45395;-73
2022/09/15 10:35:13;;;;;;;1.77;0.38;;;22.90;91.30;;;;;;5049182;28;45361;-74
2022/09/15 10:37:59;;;;;;;0.75;0.38;;;23.00;91.40;;;;;;5065957;28;45290;-73
2022/09/15 10:40:38;;;;;;;0.50;0.40;;;22.90;91.30;;;;;;5054087;28;45629;-73
2022/09/15 10:43:27;;;;;;;0.30;0.30;;;22.90;91.20;;;;;;5069290;28;45342;-73
2022/09/15 10:46:01;;;;;;;0.30;0.30;;;22.90;91.10;;;;;;5047277;28;45474;-73
2022/09/15 10:48:54;;;;;;;0.75;0.40;;;23.00;91.20;;;;;;5045739;28;45362;-73
2022/09/15 10:51:34;;;;;;;0.43;0.30;;;23.00;91.30;;;;;;5056369;28;46846;-74
2022/09/15 10:54:28;;;;;;;0.40;0.40;;;22.90;91.10;;;;;;5065718;28;45257;-74
2022/09/15 10:57:02;;;;;;;0.52;0.47;;;22.90;91.20;;;;;;5077569;28;45412;-74
2022/09/15 10:59:38;;;;;;;0.43;0.30;;;22.90;91.10;;;;;;5077289;28;45255;-73
2022/09/15 11:02:38;;;;;;;0.60;0.50;;;23.00;91.10;;;;;;5074013;28;45332;-74
2022/09/15 11:05:24;;;;;;;0.85;0.40;;;23.00;91.10;;;;;;5046957;28;45327;-73
2022/09/15 11:08:03;;;;;;;0.38;0.28;;;23.00;91.10;;;;;;5065262;28;45440;-74
2022/09/15 11:10:39;;;;;;;0.38;0.32;;;22.90;91.10;;;;;;5062787;28;45295;-73
2022/09/15 11:13:18;;;;;;;0.40;0.30;;;23.00;91.10;;;;;;5065198;28;46088;-73
2022/09/15 11:15:59;;;;;;;0.75;0.50;;;23.00;91.00;;;;;;5063233;28;45245;-74
2022/09/15 11:18:44;;;;;;;0.30;0.30;;;23.00;91.00;;;;;;5062899;28;45414;-74
2022/09/15 11:21:24;;;;;;;1.00;0.30;;;23.00;91.00;;;;;;5065323;28;45419;-73
2022/09/15 11:23:57;;;;;;;0.38;0.38;;;23.00;91.10;;;;;;5072799;28;45663;-73
2022/09/15 11:26:30;;;;;;;0.50;0.45;;;23.00;91.00;;;;;;5055663;28;45659;-74
2022/09/15 11:29:01;;;;;;;0.47;0.30;;;22.90;91.00;;;;;;5065095;28;45325;-74
2022/09/15 11:31:33;;;;;;;1.35;0.43;;;22.90;91.00;;;;;;5065626;28;45464;-74
2022/09/15 11:34:04;;;;;;;0.30;0.30;;;22.90;91.00;;;;;;5074669;28;46819;-74
2022/09/15 11:36:37;;;;;;;0.30;0.30;;;22.90;90.90;;;;;;5066151;28;45343;-74
2022/09/15 11:39:07;;;;;;;1.05;0.55;;;23.00;91.10;;;;;;5066523;28;45176;-74
2022/09/15 11:41:39;;;;;;;1.67;0.40;;;23.00;90.80;;;;;;5066573;28;45621;-73
2022/09/15 11:44:24;;;;;;;0.35;0.32;;;23.00;90.80;;;;;;5071261;28;47010;-74
2022/09/15 11:47:07;;;;;;;0.40;0.30;;;23.00;90.70;;;;;;5065627;28;45232;-74
2022/09/15 11:49:40;;;;;;;0.45;0.40;;;23.00;90.60;;;;;;5065514;28;45416;-73
2022/09/15 11:52:36;;;;;;;0.50;0.32;;;23.00;90.70;;;;;;5065529;28;45148;-74
2022/09/15 11:55:13;;;;;;;0.22;0.20;;;23.00;90.50;;;;;;5065597;28;46708;-74
2022/09/15 11:57:45;;;;;;;0.28;0.28;;;23.10;90.40;;;;;;5065676;28;45234;-75
2022/09/15 12:00:15;;;;;;;0.25;0.25;;;23.10;90.40;;;;;;5065985;28;45256;-74
2022/09/15 12:02:47;;;;;;;0.50;0.30;;;23.10;90.50;;;;;;5065023;28;45565;-74
2022/09/15 12:05:17;;;;;;;0.30;0.30;;;23.10;90.50;;;;;;5064880;28;46285;-74
2022/09/15 12:07:50;;;;;;;0.20;0.20;;;23.10;90.40;;;;;;5065388;28;45923;-74
2022/09/15 12:10:23;;;;;;;0.80;0.30;;;23.10;90.50;;;;;;5064016;28;45468;-74
2022/09/15 12:12:52;;;;;;;0.32;0.32;;;23.10;90.40;;;;;;5054519;28;45518;-74
2022/09/15 12:15:26;;;;;;;0.38;0.28;;;23.10;90.40;;;;;;5064366;28;46726;-74
2022/09/15 12:18:03;;;;;;;0.82;0.50;;;23.10;90.30;;;;;;5065082;28;45714;-74
2022/09/15 12:20:39;;;;;;;0.70;0.38;;;23.10;90.20;;;;;;5065139;28;45480;-74
2022/09/15 12:23:19;;;;;;;0.73;0.38;;;23.10;90.20;;;;;;5062065;28;45499;-74
2022/09/15 12:25:59;;;;;;;0.30;0.30;;;23.10;90.20;;;;;;5065990;28;47145;-74
2022/09/15 12:28:38;;;;;;;0.80;0.20;;;23.10;90.10;;;;;;5066471;28;45234;-74
2022/09/15 12:31:28;;;;;;;0.80;0.40;;;23.10;90.10;;;;;;5068776;28;45288;-74
2022/09/15 12:33:58;;;;;;;0.65;0.30;;;23.10;90.00;;;;;;5055496;28;45418;-74
2022/09/15 12:36:43;;;;;;;0.50;0.50;;;23.00;90.00;;;;;;5067883;28;45467;-74
2022/09/15 12:39:29;;;;;;;0.20;0.20;;;23.10;89.90;;;;;;5073445;28;45308;-74
2022/09/15 12:42:13;;;;;;;0.63;0.30;;;23.10;90.00;;;;;;5067689;28;45248;-74
2022/09/15 12:44:43;;;;;;;0.43;0.30;;;23.10;89.80;;;;;;5048005;28;45404;-74
2022/09/15 12:47:24;;;;;;;0.65;0.30;;;23.10;89.80;;;;;;5057249;28;45444;-74
2022/09/15 12:49:54;;;;;;;0.30;0.30;;;23.10;89.70;;;;;;5067880;28;45320;-74
2022/09/15 12:52:23;;;;;;;0.30;0.30;;;23.10;89.40;;;;;;5068186;28;45373;-74
2022/09/15 12:54:54;;;;;;;0.50;0.40;;;23.10;89.50;;;;;;5068219;28;45251;-74
2022/09/15 12:57:25;;;;;;;0.57;0.35;;;23.00;89.20;;;;;;5068062;28;47083;-74
2022/09/15 13:00:26;;;;;;;0.30;0.30;;;23.10;89.80;;;;;;5067873;28;45283;-74
2022/09/15 13:02:55;;;;;;;0.40;0.20;;;23.00;89.40;;;;;;5054501;28;45300;-74
2022/09/15 13:06:11;;;;;;;0.30;0.30;;;23.10;89.60;;;;;;5067687;28;45222;-74
2022/09/15 13:08:49;;;;;;;0.20;0.20;;;23.10;88.80;;;;;;5067962;28;46551;-74
2022/09/15 13:11:24;;;;;;;0.30;0.20;;;23.10;88.50;;;;;;5066543;28;45311;-74
2022/09/15 13:13:54;;;;;;;0.20;0.20;;;23.00;88.70;;;;;;5074561;28;45431;-74